createdAt,value
2022-08-30T00:01:32.615Z,4.68
2022-08-30T00:04:01.476Z,4.87
2022-08-30T00:06:31.016Z,4.47
2022-08-30T00:08:59.785Z,4.80
2022-08-30T00:11:28.227Z,4.37
2022-08-30T00:13:56.521Z,4.55
2022-08-30T00:16:24.695Z,4.47
2022-08-30T00:18:52.534Z,4.95
2022-08-30T00:21:19.891Z,4.40
2022-08-30T00:23:47.208Z,4.53
2022-08-30T00:26:14.813Z,4.40
2022-08-30T00:28:42.263Z,4.55
2022-08-30T00:31:10.515Z,5.10
2022-08-30T00:33:42.762Z,4.53
2022-08-30T00:36:10.155Z,5.05
2022-08-30T00:38:37.488Z,4.97
2022-08-30T00:41:05.203Z,4.97
2022-08-30T00:43:34.838Z,5.45
2022-08-30T00:46:08.246Z,4.40
2022-08-30T00:48:39.050Z,5.03
2022-08-30T00:51:10.051Z,5.12
2022-08-30T00:53:39.680Z,4.90
2022-08-30T00:56:07.317Z,5.25
2022-08-30T00:58:37.783Z,5.20
2022-08-30T01:01:06.636Z,5.00
2022-08-30T01:03:34.671Z,5.32
2022-08-30T01:06:03.173Z,5.20
2022-08-30T01:08:30.801Z,4.95
2022-08-30T01:10:58.485Z,4.85
2022-08-30T01:13:27.275Z,5.10
2022-08-30T01:15:55.865Z,5.15
2022-08-30T01:18:23.996Z,5.30
2022-08-30T01:21:03.583Z,5.37
2022-08-30T01:23:32.452Z,5.10
2022-08-30T01:26:00.495Z,5.12
2022-08-30T01:28:29.194Z,5.12
2022-08-30T01:30:56.914Z,5.40
2022-08-30T01:33:24.811Z,6.05
2022-08-30T01:35:56.329Z,5.18
2022-08-30T01:38:27.905Z,5.18
2022-08-30T01:41:08.548Z,5.95
2022-08-30T01:43:36.786Z,5.32
2022-08-30T01:46:05.272Z,5.53
2022-08-30T01:48:34.138Z,5.65
2022-08-30T01:51:03.108Z,5.53
2022-08-30T01:53:30.628Z,5.22
2022-08-30T01:55:58.260Z,5.70
2022-08-30T01:58:25.866Z,5.37
2022-08-30T02:00:53.313Z,5.45
2022-08-30T02:03:21.079Z,5.18
2022-08-30T02:05:49.123Z,5.50
2022-08-30T02:08:16.573Z,5.25
2022-08-30T02:10:44.612Z,5.70
2022-08-30T02:13:12.237Z,5.50
2022-08-30T02:15:41.630Z,5.70
2022-08-30T02:18:10.691Z,5.20
2022-08-30T02:20:39.851Z,5.07
2022-08-30T02:23:07.200Z,5.65
2022-08-30T02:25:34.889Z,5.55
2022-08-30T02:28:02.572Z,5.78
2022-08-30T02:30:29.948Z,6.22
2022-08-30T02:32:57.577Z,5.57
2022-08-30T02:35:25.500Z,5.95
2022-08-30T02:37:52.983Z,5.68
2022-08-30T02:40:22.138Z,5.32
2022-08-30T02:42:49.817Z,5.20
2022-08-30T02:45:17.199Z,5.62
2022-08-30T02:47:47.208Z,6.03
2022-08-30T02:50:15.319Z,5.12
2022-08-30T02:52:42.718Z,5.35
2022-08-30T02:55:12.592Z,6.12
2022-08-30T02:57:40.206Z,6.00
2022-08-30T03:00:13.932Z,5.90
2022-08-30T03:02:41.880Z,5.85
2022-08-30T03:05:12.924Z,6.07
2022-08-30T03:07:41.585Z,5.93
2022-08-30T03:10:10.881Z,5.57
2022-08-30T03:12:38.303Z,5.82
2022-08-30T03:15:06.832Z,6.20
2022-08-30T03:17:34.539Z,6.10
2022-08-30T03:20:02.242Z,5.57
2022-08-30T03:22:29.911Z,6.22
2022-08-30T03:25:01.608Z,5.93
2022-08-30T03:27:29.561Z,6.00
2022-08-30T03:29:57.196Z,6.25
2022-08-30T03:32:24.604Z,6.10
2022-08-30T03:34:51.932Z,6.68
2022-08-30T03:37:23.252Z,6.00
2022-08-30T03:39:53.075Z,6.25
2022-08-30T03:42:20.714Z,6.50
2022-08-30T03:44:50.556Z,6.55
2022-08-30T03:47:17.929Z,6.65
2022-08-30T03:49:45.612Z,5.95
2022-08-30T03:52:12.945Z,6.32
2022-08-30T03:54:40.424Z,7.03
2022-08-30T03:57:08.035Z,6.20
2022-08-30T03:59:40.692Z,6.53
2022-08-30T04:02:08.335Z,6.43
2022-08-30T04:04:35.975Z,6.97
2022-08-30T04:07:03.649Z,6.65
2022-08-30T04:09:31.421Z,6.60
2022-08-30T04:12:00.171Z,6.78
2022-08-30T04:14:27.508Z,6.28
2022-08-30T04:16:55.173Z,6.43
2022-08-30T04:19:22.803Z,6.70
2022-08-30T04:21:50.230Z,7.00
2022-08-30T04:24:17.810Z,6.95
2022-08-30T04:26:45.442Z,6.72
2022-08-30T04:29:16.450Z,7.05
2022-08-30T04:31:44.769Z,7.10
2022-08-30T04:34:13.587Z,7.00
2022-08-30T04:36:41.165Z,7.50
2022-08-30T04:39:08.776Z,7.70
2022-08-30T04:41:37.761Z,7.50
2022-08-30T04:44:05.124Z,7.00
2022-08-30T04:46:34.688Z,6.82
2022-08-30T04:49:02.731Z,6.43
2022-08-30T04:51:30.163Z,6.30
2022-08-30T04:53:57.507Z,7.05
2022-08-30T04:56:25.315Z,6.93
2022-08-30T04:58:55.004Z,8.15
2022-08-30T05:01:26.112Z,7.45
2022-08-30T05:03:55.209Z,7.37
2022-08-30T05:06:23.959Z,7.37
2022-08-30T05:08:52.791Z,7.43
2022-08-30T05:11:21.049Z,6.95
2022-08-30T05:13:49.735Z,7.28
2022-08-30T05:16:20.232Z,6.97
2022-08-30T05:18:49.320Z,7.10
2022-08-30T05:21:19.878Z,7.62
2022-08-30T05:23:47.910Z,7.12
2022-08-30T05:26:18.370Z,6.60
2022-08-30T05:28:46.096Z,7.05
2022-08-30T05:31:16.502Z,7.03
2022-08-30T05:33:45.067Z,6.97
2022-08-30T05:36:14.036Z,6.90
2022-08-30T05:38:41.502Z,6.78
2022-08-30T05:41:10.917Z,6.37
2022-08-30T05:43:39.072Z,7.03
2022-08-30T05:46:12.646Z,7.22
2022-08-30T05:48:40.762Z,7.05
2022-08-30T05:51:09.467Z,6.72
2022-08-30T05:53:37.420Z,6.37
2022-08-30T05:56:08.221Z,6.90
2022-08-30T05:58:36.156Z,6.97
2022-08-30T06:01:04.717Z,7.47
2022-08-30T06:03:32.939Z,7.30
2022-08-30T06:06:00.936Z,6.37
2022-08-30T06:08:28.280Z,7.07
2022-08-30T06:10:55.893Z,6.20
2022-08-30T06:13:23.493Z,6.03
2022-08-30T06:15:52.571Z,5.80
2022-08-30T06:18:23.520Z,5.53
2022-08-30T06:20:56.153Z,5.37
2022-08-30T06:23:23.857Z,5.75
2022-08-30T06:25:51.174Z,4.75
2022-08-30T06:28:18.582Z,5.05
2022-08-30T06:30:46.348Z,4.12
2022-08-30T06:33:13.699Z,4.82
2022-08-30T06:35:56.701Z,4.32
2022-08-30T06:38:26.606Z,5.00
2022-08-30T06:40:54.165Z,5.07
2022-08-30T06:43:21.574Z,5.00
2022-08-30T06:45:49.193Z,4.43
2022-08-30T06:48:16.678Z,5.00
2022-08-30T06:50:44.897Z,4.90
2022-08-30T06:53:12.801Z,4.50
2022-08-30T06:55:40.435Z,4.95
2022-08-30T06:58:07.759Z,4.78
2022-08-30T07:00:35.460Z,4.40
2022-08-30T07:03:04.085Z,4.72
2022-08-30T07:05:32.815Z,4.57
2022-08-30T07:08:00.432Z,4.68
2022-08-30T07:10:27.763Z,5.20
2022-08-30T07:12:55.137Z,4.45
2022-08-30T07:15:23.014Z,4.47
2022-08-30T07:18:09.282Z,4.00
2022-08-30T07:20:40.359Z,4.15
2022-08-30T07:23:09.298Z,4.15
2022-08-30T07:25:38.030Z,4.85
2022-08-30T07:28:06.243Z,4.20
2022-08-30T07:30:34.491Z,4.70
2022-08-30T07:33:02.376Z,4.15
2022-08-30T07:35:29.764Z,3.95
2022-08-30T07:37:57.476Z,4.50
2022-08-30T07:40:25.497Z,4.55
2022-08-30T07:42:53.132Z,4.40
2022-08-30T07:45:20.818Z,3.85
2022-08-30T07:47:48.435Z,4.00
2022-08-30T07:50:15.872Z,3.70
2022-08-30T07:52:43.217Z,3.75
2022-08-30T07:55:10.868Z,4.37
2022-08-30T07:57:38.319Z,4.03
2022-08-30T08:00:06.465Z,4.30
2022-08-30T08:02:40.688Z,4.20
2022-08-30T08:05:12.805Z,4.03
2022-08-30T08:07:44.051Z,4.03
2022-08-30T08:10:11.759Z,4.00
2022-08-30T08:12:39.897Z,3.87
2022-08-30T08:15:08.895Z,4.00
2022-08-30T08:17:36.679Z,4.25
2022-08-30T08:20:04.745Z,4.03
2022-08-30T08:22:32.094Z,3.90
2022-08-30T08:24:59.804Z,4.28
2022-08-30T08:27:27.145Z,4.30
2022-08-30T08:29:54.805Z,4.30
2022-08-30T08:32:22.403Z,3.58
2022-08-30T08:34:49.729Z,3.70
2022-08-30T08:37:18.399Z,3.70
2022-08-30T08:39:48.588Z,3.37
2022-08-30T08:42:37.100Z,3.55
2022-08-30T08:45:14.268Z,3.40
2022-08-30T08:47:54.363Z,3.25
2022-08-30T08:50:23.288Z,3.23
2022-08-30T08:53:20.451Z,3.53
2022-08-30T08:58:32.254Z,3.12
2022-08-30T09:01:00.154Z,3.67
2022-08-30T09:03:29.352Z,3.70
2022-08-30T09:05:58.194Z,3.65
2022-08-30T09:08:27.242Z,3.22
2022-08-30T09:11:04.801Z,3.50
2022-08-30T09:13:32.705Z,3.95
2022-08-30T09:16:00.760Z,3.83
2022-08-30T09:18:50.100Z,4.05
2022-08-30T09:21:25.295Z,3.92
2022-08-30T09:24:01.630Z,3.65
2022-08-30T09:26:36.850Z,3.97
2022-08-30T09:29:05.753Z,4.00
2022-08-30T09:31:48.781Z,4.12
2022-08-30T09:34:20.316Z,3.78
2022-08-30T09:39:21.221Z,3.72
2022-08-30T09:41:52.924Z,4.15
2022-08-30T09:44:24.579Z,3.97
2022-08-30T09:46:54.409Z,4.28
2022-08-30T09:55:02.178Z,4.18
2022-08-30T09:57:43.006Z,3.53
2022-08-30T10:00:24.730Z,3.75
2022-08-30T10:03:36.321Z,3.80
2022-08-30T10:06:37.290Z,3.85
2022-08-30T10:09:11.038Z,4.05
2022-08-30T10:11:56.331Z,4.50
2022-08-30T10:14:33.182Z,3.67
2022-08-30T10:17:41.763Z,3.70
2022-08-30T10:20:16.819Z,4.50
2022-08-30T10:23:01.191Z,3.97
2022-08-30T10:25:45.312Z,4.62
2022-08-30T10:28:40.711Z,4.07
2022-08-30T10:31:15.078Z,4.00
2022-08-30T10:33:46.735Z,4.32
2022-08-30T10:36:15.361Z,4.35
2022-08-30T10:38:48.657Z,4.10
2022-08-30T10:41:19.171Z,4.57
2022-08-30T10:43:54.751Z,3.75
2022-08-30T10:46:29.535Z,4.45
2022-08-30T10:48:59.259Z,4.50
2022-08-30T10:51:33.479Z,4.32
2022-08-30T10:54:18.581Z,4.22
2022-08-30T10:56:51.343Z,4.43
2022-08-30T10:59:19.184Z,3.78
2022-08-30T11:02:17.989Z,3.95
2022-08-30T11:05:06.899Z,4.70
2022-08-30T11:07:49.266Z,4.00
2022-08-30T11:10:43.220Z,3.97
2022-08-30T11:13:26.441Z,4.20
2022-08-30T11:15:58.433Z,4.10
2022-08-30T11:18:26.626Z,4.12
2022-08-30T11:20:56.404Z,4.12
2022-08-30T11:23:29.105Z,3.80
2022-08-30T11:26:06.337Z,3.72
2022-08-30T11:28:38.409Z,3.78
2022-08-30T11:34:01.287Z,4.07
2022-08-30T11:36:28.946Z,3.75
2022-08-30T11:39:09.399Z,4.03
2022-08-30T11:41:43.861Z,3.78
2022-08-30T11:44:27.612Z,3.75
2022-08-30T11:47:01.032Z,3.78
2022-08-30T11:49:40.247Z,3.75
2022-08-30T11:52:28.866Z,3.53
2022-08-30T11:55:22.757Z,3.87
2022-08-30T11:57:59.542Z,3.97
2022-08-30T12:00:42.046Z,3.53
2022-08-30T12:03:16.027Z,4.12
2022-08-30T12:05:44.236Z,3.83
2022-08-30T12:08:20.751Z,3.33
2022-08-30T12:10:51.712Z,3.72
2022-08-30T12:13:38.113Z,3.70
2022-08-30T12:16:16.312Z,3.60
2022-08-30T12:19:00.179Z,4.22
2022-08-30T12:21:43.601Z,3.17
2022-08-30T12:24:40.010Z,4.07
2022-08-30T12:27:32.615Z,3.65
2022-08-30T12:30:05.831Z,3.90
2022-08-30T12:32:33.747Z,4.45
2022-08-30T12:35:03.904Z,4.18
2022-08-30T12:37:37.445Z,3.70
2022-08-30T12:40:11.290Z,3.92
2022-08-30T12:42:53.789Z,3.67
2022-08-30T12:45:24.817Z,3.60
2022-08-30T12:48:01.935Z,3.27
2022-08-30T12:50:35.501Z,4.05
2022-08-30T12:53:13.550Z,3.62
2022-08-30T12:56:00.850Z,3.60
2022-08-30T12:58:38.944Z,3.65
2022-08-30T13:01:28.195Z,3.75
2022-08-30T13:04:00.894Z,3.58
2022-08-30T13:06:48.721Z,3.53
2022-08-30T13:09:39.884Z,4.00
2022-08-30T13:12:22.742Z,3.80
2022-08-30T13:14:52.398Z,3.25
2022-08-30T13:17:21.449Z,3.22
2022-08-30T13:20:20.570Z,3.12
2022-08-30T13:23:09.589Z,3.62
2022-08-30T13:25:38.456Z,3.50
2022-08-30T13:28:07.384Z,3.62
2022-08-30T13:30:34.764Z,3.60
2022-08-30T13:33:02.611Z,3.60
2022-08-30T13:35:31.409Z,3.70
2022-08-30T13:38:01.323Z,3.67
2022-08-30T13:40:28.692Z,3.28
2022-08-30T13:42:58.563Z,2.97
2022-08-30T13:45:41.953Z,3.40
2022-08-30T13:48:11.329Z,3.25
2022-08-30T13:50:39.581Z,3.50
2022-08-30T13:53:09.219Z,2.97
2022-08-30T13:55:38.311Z,3.65
2022-08-30T13:58:05.693Z,3.20
2022-08-30T14:00:37.844Z,3.37
2022-08-30T14:03:05.893Z,3.60
2022-08-30T14:06:04.722Z,3.33
2022-08-30T14:08:49.830Z,3.12
2022-08-30T14:11:21.214Z,3.67
2022-08-30T14:16:43.131Z,3.37
2022-08-30T14:19:12.440Z,2.83
2022-08-30T14:21:39.835Z,3.33
2022-08-30T14:24:07.439Z,3.20
2022-08-30T14:26:48.392Z,3.33
2022-08-30T14:29:18.979Z,3.40
2022-08-30T14:31:48.600Z,3.50
2022-08-30T14:34:16.705Z,3.78
2022-08-30T14:36:45.613Z,2.72
2022-08-30T14:39:17.996Z,3.03
2022-08-30T14:41:55.591Z,3.37
2022-08-30T14:44:24.669Z,3.45
2022-08-30T14:46:52.678Z,3.42
2022-08-30T14:49:20.740Z,3.28
2022-08-30T14:51:49.440Z,3.47
2022-08-30T14:54:19.547Z,3.40
2022-08-30T14:56:47.433Z,3.55
2022-08-30T14:59:15.332Z,3.60
2022-08-30T15:01:45.225Z,3.72
2022-08-30T15:04:14.289Z,3.40
2022-08-30T15:06:44.283Z,3.80
2022-08-30T15:09:14.803Z,2.97
2022-08-30T15:11:47.055Z,3.40
2022-08-30T15:14:16.292Z,3.42
2022-08-30T15:16:44.325Z,3.50
2022-08-30T15:19:12.595Z,3.45
2022-08-30T15:21:42.899Z,3.62
2022-08-30T15:24:15.027Z,3.83
2022-08-30T15:26:44.114Z,3.70
2022-08-30T15:29:13.516Z,4.00
2022-08-30T15:31:41.904Z,3.62
2022-08-30T15:34:11.100Z,3.37
2022-08-30T15:36:39.025Z,3.37
2022-08-30T15:39:07.206Z,4.20
2022-08-30T15:41:37.787Z,3.33
2022-08-30T15:44:07.706Z,3.30
2022-08-30T15:46:41.685Z,3.40
2022-08-30T15:49:23.323Z,3.42
2022-08-30T15:51:54.325Z,3.08
2022-08-30T15:54:23.617Z,3.53
2022-08-30T15:56:58.801Z,3.78
2022-08-30T15:59:28.305Z,3.30
2022-08-30T16:01:56.118Z,3.33
2022-08-30T16:04:25.701Z,3.28
2022-08-30T16:06:53.211Z,3.90
2022-08-30T16:09:21.697Z,3.50
2022-08-30T16:11:49.342Z,3.70
2022-08-30T16:14:16.779Z,2.95
2022-08-30T16:16:46.207Z,3.12
2022-08-30T16:19:13.903Z,3.97
2022-08-30T16:21:41.985Z,3.30
2022-08-30T16:24:10.399Z,3.17
2022-08-30T16:26:38.462Z,3.17
2022-08-30T16:29:07.365Z,3.40
2022-08-30T16:31:37.007Z,3.55
2022-08-30T16:34:05.059Z,3.30
2022-08-30T16:36:33.212Z,3.28
2022-08-30T16:39:00.911Z,3.00
2022-08-30T16:41:28.774Z,2.95
2022-08-30T16:43:56.432Z,3.70
2022-08-30T16:46:27.236Z,3.40
2022-08-30T16:51:27.944Z,3.00
2022-08-30T16:53:58.106Z,3.17
2022-08-30T16:56:27.226Z,3.05
2022-08-30T16:59:01.091Z,2.90
2022-08-30T17:01:31.773Z,3.00
2022-08-30T17:03:59.740Z,2.70
2022-08-30T17:06:27.203Z,2.80
2022-08-30T17:08:56.332Z,2.92
2022-08-30T17:11:24.577Z,3.45
2022-08-30T17:13:52.519Z,2.95
2022-08-30T17:16:22.574Z,2.97
2022-08-30T17:19:00.894Z,3.30
2022-08-30T17:21:29.366Z,3.22
2022-08-30T17:24:01.835Z,2.97
2022-08-30T17:26:31.938Z,3.55
2022-08-30T17:28:59.366Z,3.53
2022-08-30T17:31:30.629Z,3.67
2022-08-30T17:34:03.570Z,2.95
2022-08-30T17:36:35.176Z,2.60
2022-08-30T17:44:32.744Z,3.00
2022-08-30T17:47:00.547Z,2.35
2022-08-30T17:49:29.595Z,2.70
2022-08-30T17:51:58.535Z,2.97
2022-08-30T17:54:27.609Z,2.95
2022-08-30T17:56:55.537Z,2.40
2022-08-30T17:59:25.614Z,3.22
2022-08-30T18:01:54.525Z,3.42
2022-08-30T18:04:24.844Z,2.78
2022-08-30T18:06:53.323Z,2.85
2022-08-30T18:09:21.046Z,3.17
2022-08-30T18:11:48.750Z,3.05
2022-08-30T18:14:16.464Z,2.87
2022-08-30T18:16:49.821Z,2.47
2022-08-30T18:19:23.893Z,3.15
2022-08-30T18:21:52.023Z,2.87
2022-08-30T18:24:19.503Z,3.22
2022-08-30T18:26:47.140Z,3.90
2022-08-30T18:29:14.802Z,3.60
2022-08-30T18:31:53.643Z,3.85
2022-08-30T18:34:20.997Z,3.30
2022-08-30T18:36:49.158Z,3.17
2022-08-30T18:39:16.786Z,2.85
2022-08-30T18:41:44.263Z,3.08
2022-08-30T18:44:27.330Z,2.72
2022-08-30T18:46:57.231Z,3.08
2022-08-30T18:49:26.220Z,2.97
2022-08-30T18:51:53.632Z,2.78
2022-08-30T18:54:21.240Z,3.03
2022-08-30T18:56:48.964Z,3.00
2022-08-30T18:59:17.264Z,3.17
2022-08-30T19:01:46.562Z,2.90
2022-08-30T19:04:29.490Z,3.25
2022-08-30T19:07:07.624Z,3.03
2022-08-30T19:09:35.805Z,3.08
2022-08-30T19:12:05.173Z,3.10
2022-08-30T19:14:36.869Z,3.45
2022-08-30T19:19:52.607Z,3.03
2022-08-30T19:22:22.174Z,3.05
2022-08-30T19:24:51.367Z,2.87
2022-08-30T19:27:23.721Z,3.28
2022-08-30T19:30:11.099Z,2.80
2022-08-30T19:32:38.599Z,2.47
2022-08-30T19:35:07.039Z,3.15
2022-08-30T19:37:35.046Z,3.03
2022-08-30T19:40:05.188Z,2.97
2022-08-30T19:42:32.870Z,3.20
2022-08-30T19:45:00.348Z,2.92
2022-08-30T19:47:27.751Z,2.92
2022-08-30T19:49:55.362Z,2.58
2022-08-30T19:52:23.101Z,2.78
2022-08-30T19:54:50.547Z,2.83
2022-08-30T19:57:18.168Z,3.15
2022-08-30T19:59:45.641Z,2.95
2022-08-30T20:02:13.717Z,3.28
2022-08-30T20:04:41.468Z,3.05
2022-08-30T20:07:10.286Z,2.78
2022-08-30T20:09:38.033Z,2.87
2022-08-30T20:12:05.751Z,2.70
2022-08-30T20:14:33.111Z,2.75
2022-08-30T20:17:02.338Z,3.00
2022-08-30T20:19:30.460Z,2.80
2022-08-30T20:22:07.094Z,3.15
2022-08-30T20:24:24.179Z,2.62
2022-08-30T20:24:32.330Z,3.28
2022-08-30T20:27:08.958Z,3.00
2022-08-30T20:29:37.861Z,2.72
2022-08-30T20:32:05.634Z,2.78
2022-08-30T20:34:33.640Z,2.67
2022-08-30T20:37:01.244Z,2.87
2022-08-30T20:39:28.606Z,2.67
2022-08-30T20:41:56.002Z,2.95
2022-08-30T20:44:23.888Z,2.90
2022-08-30T20:46:51.217Z,2.80
2022-08-30T20:49:20.284Z,2.65
2022-08-30T20:51:52.821Z,2.78
2022-08-30T20:54:21.800Z,2.65
2022-08-30T20:56:50.188Z,2.92
2022-08-30T20:59:17.795Z,2.92
2022-08-30T21:01:45.151Z,2.95
2022-08-30T21:04:13.249Z,2.67
2022-08-30T21:06:40.577Z,2.85
2022-08-30T21:09:08.719Z,3.33
2022-08-30T21:11:37.546Z,2.80
2022-08-30T21:14:05.223Z,2.53
2022-08-30T21:16:32.596Z,2.35
2022-08-30T21:19:00.443Z,2.85
2022-08-30T21:21:30.307Z,2.78
2022-08-30T21:24:00.776Z,3.12
2022-08-30T21:26:28.608Z,2.50
2022-08-30T21:28:56.015Z,2.78
2022-08-30T21:31:26.238Z,2.70
2022-08-30T21:33:54.785Z,3.42
2022-08-30T21:36:42.120Z,2.40
2022-08-30T21:39:10.523Z,3.00
2022-08-30T21:41:38.823Z,2.78
2022-08-30T21:44:09.522Z,3.10
2022-08-30T21:46:37.494Z,3.30
2022-08-30T21:49:07.358Z,3.20
2022-08-30T21:51:37.975Z,3.15
2022-08-30T21:54:08.539Z,3.30
2022-08-30T21:56:40.538Z,3.25
2022-08-30T21:59:08.662Z,3.47
2022-08-30T22:01:37.703Z,3.00
2022-08-30T22:04:07.501Z,3.10
2022-08-30T22:06:36.631Z,2.95
2022-08-30T22:09:08.937Z,3.12
2022-08-30T22:11:37.355Z,3.10
2022-08-30T22:14:05.834Z,2.95
2022-08-30T22:16:33.930Z,2.90
2022-08-30T22:19:02.041Z,3.05
2022-08-30T22:21:31.539Z,2.65
2022-08-30T22:23:59.028Z,3.15
2022-08-30T22:26:27.056Z,2.80
2022-08-30T22:28:54.740Z,3.30
2022-08-30T22:31:23.026Z,2.90
2022-08-30T22:33:52.120Z,3.22
2022-08-30T22:36:32.944Z,3.20
2022-08-30T22:39:02.025Z,3.28
2022-08-30T22:41:32.710Z,2.83
2022-08-30T22:44:00.086Z,3.12
2022-08-30T22:46:33.613Z,2.80
2022-08-30T22:49:04.260Z,2.97
2022-08-30T22:51:32.227Z,2.85
2022-08-30T22:54:00.794Z,2.97
2022-08-30T22:56:28.679Z,3.25
2022-08-30T22:58:56.875Z,3.47
2022-08-30T23:01:37.061Z,3.33
2022-08-30T23:04:06.875Z,3.42
2022-08-30T23:06:34.691Z,3.17
2022-08-30T23:09:02.469Z,3.47
2022-08-30T23:11:31.820Z,2.90
2022-08-30T23:14:02.264Z,3.40
2022-08-30T23:16:30.039Z,3.10
2022-08-30T23:18:57.448Z,3.17
2022-08-30T23:21:27.567Z,3.40
2022-08-30T23:24:14.706Z,3.12
2022-08-30T23:27:01.658Z,3.33
2022-08-30T23:29:49.908Z,3.30
2022-08-30T23:32:36.343Z,3.70
2022-08-30T23:35:29.017Z,3.37
2022-08-30T23:38:17.889Z,3.60
2022-08-30T23:41:04.226Z,2.80
2022-08-30T23:43:50.120Z,3.42
2022-08-30T23:46:36.282Z,3.12
2022-08-30T23:49:22.731Z,2.97
2022-08-30T23:52:08.815Z,3.70
2022-08-30T23:54:57.153Z,3.30
2022-08-30T23:57:44.978Z,3.97
